ACA1361 KMIA-CYUL
Flight info
| Callsign | ACA1361 |
|---|---|
| Flight time | N/A |
| Altitude | 38000 |
| Route | FOLZZ3 ALYRA DCT GRUBR/N0466F390 Y299 SEELO DCT WAALT Q131 EARZZ DCT JAMIE Q133 PBERG CARTR5 |
| Aircraft | A339/H-SADE1E2E3GHIJ3J5M1P2RWXY/LB2D1 |
Departure
| Time | N/A |
|---|---|
| Airport | Miami International Airport (KMIA) |
Arrival
| Time | 2026-05-07 13:38 |
|---|---|
| Airport | Montreal / Pierre Elliott Trudeau International Airport (CYUL) |
| Time | Latitude | Longitude | Altitude | Speed | Heading |
|---|---|---|---|---|---|
| 2026-05-07 12:35 | 39.62374 | -74.62170 | 37950 ft | 555 kts | 23° |
| 2026-05-07 12:35 | 39.65482 | -74.59306 | 37952 ft | 554 kts | 23° |
| 2026-05-07 12:36 | 39.71802 | -74.53479 | 37948 ft | 555 kts | 23° |
| 2026-05-07 12:36 | 39.78081 | -74.47675 | 37948 ft | 554 kts | 23° |
| 2026-05-07 12:37 | 39.84378 | -74.41846 | 37945 ft | 554 kts | 23° |
| 2026-05-07 12:37 | 39.90636 | -74.36036 | 37953 ft | 553 kts | 22° |
| 2026-05-07 12:38 | 39.96893 | -74.30225 | 37955 ft | 555 kts | 23° |
| 2026-05-07 12:38 | 40.03188 | -74.24354 | 37950 ft | 556 kts | 23° |
| 2026-05-07 12:39 | 40.09442 | -74.18507 | 37939 ft | 554 kts | 23° |
| 2026-05-07 12:39 | 40.15528 | -74.12811 | 37942 ft | 554 kts | 23° |
| 2026-05-07 12:40 | 40.21672 | -74.07050 | 37935 ft | 556 kts | 24° |
| 2026-05-07 12:40 | 40.27917 | -74.01163 | 37926 ft | 555 kts | 24° |
| 2026-05-07 12:41 | 40.34242 | -73.95494 | 37926 ft | 548 kts | 18° |
| 2026-05-07 12:41 | 40.40850 | -73.90887 | 37920 ft | 534 kts | 11° |
| 2026-05-07 12:42 | 40.47577 | -73.86816 | 37919 ft | 532 kts | 10° |
| 2026-05-07 12:42 | 40.54280 | -73.82732 | 37918 ft | 535 kts | 11° |
| 2026-05-07 12:43 | 40.60842 | -73.78817 | 37920 ft | 529 kts | 7° |
| 2026-05-07 12:43 | 40.67498 | -73.75870 | 37918 ft | 509 kts | 359° |
| 2026-05-07 12:44 | 40.74321 | -73.73801 | 37917 ft | 502 kts | 356° |
| 2026-05-07 12:44 | 40.81126 | -73.71893 | 37917 ft | 504 kts | 355° |
| 2026-05-07 12:45 | 40.87990 | -73.69922 | 37914 ft | 505 kts | 356° |
| 2026-05-07 12:45 | 40.94843 | -73.67925 | 37914 ft | 506 kts | 356° |
| 2026-05-07 12:46 | 41.01720 | -73.65909 | 37908 ft | 507 kts | 356° |
| 2026-05-07 12:46 | 41.08586 | -73.63895 | 37893 ft | 508 kts | 356° |
| 2026-05-07 12:47 | 41.15482 | -73.61860 | 37887 ft | 506 kts | 356° |
| 2026-05-07 12:47 | 41.22178 | -73.59888 | 37895 ft | 508 kts | 357° |
| 2026-05-07 12:48 | 41.28994 | -73.58041 | 37895 ft | 498 kts | 352° |
| 2026-05-07 12:48 | 41.35810 | -73.56972 | 37898 ft | 491 kts | 349° |
| 2026-05-07 12:49 | 41.42574 | -73.56094 | 37883 ft | 489 kts | 349° |
| 2026-05-07 12:49 | 41.49296 | -73.55208 | 37797 ft | 490 kts | 349° |
| 2026-05-07 12:50 | 41.56102 | -73.54302 | 37889 ft | 493 kts | 350° |
| 2026-05-07 12:50 | 41.62948 | -73.53367 | 37890 ft | 492 kts | 350° |
| 2026-05-07 12:51 | 41.69737 | -73.52447 | 37900 ft | 496 kts | 350° |
| 2026-05-07 12:51 | 41.76597 | -73.51506 | 37888 ft | 494 kts | 351° |
| 2026-05-07 12:52 | 41.83456 | -73.50570 | 37891 ft | 496 kts | 351° |
| 2026-05-07 12:52 | 41.90244 | -73.49635 | 37863 ft | 494 kts | 351° |
| 2026-05-07 12:53 | 41.97082 | -73.48697 | 37857 ft | 496 kts | 351° |
| 2026-05-07 12:53 | 42.03915 | -73.47752 | 37865 ft | 494 kts | 351° |
| 2026-05-07 12:54 | 42.10781 | -73.46810 | 37856 ft | 495 kts | 351° |
| 2026-05-07 12:54 | 42.17462 | -73.45888 | 37861 ft | 496 kts | 352° |
| 2026-05-07 12:55 | 42.24087 | -73.44971 | 37875 ft | 498 kts | 352° |
| 2026-05-07 12:55 | 42.31150 | -73.43984 | 37864 ft | 498 kts | 352° |
| 2026-05-07 12:56 | 42.38067 | -73.43026 | 37865 ft | 500 kts | 353° |
| 2026-05-07 12:56 | 42.45008 | -73.42058 | 37858 ft | 502 kts | 353° |
| 2026-05-07 12:57 | 42.51957 | -73.41084 | 37860 ft | 502 kts | 353° |
| 2026-05-07 12:57 | 42.58873 | -73.40108 | 37867 ft | 500 kts | 353° |
| 2026-05-07 12:58 | 42.65770 | -73.39146 | 37866 ft | 502 kts | 353° |
| 2026-05-07 12:58 | 42.72697 | -73.38168 | 37873 ft | 502 kts | 353° |
| 2026-05-07 12:59 | 42.79621 | -73.37193 | 37847 ft | 503 kts | 354° |
| 2026-05-07 12:59 | 42.86554 | -73.36210 | 37861 ft | 501 kts | 354° |
| 2026-05-07 13:00 | 42.93534 | -73.35221 | 37870 ft | 502 kts | 354° |
| 2026-05-07 13:00 | 43.00439 | -73.34624 | 37887 ft | 494 kts | 349° |
| 2026-05-07 13:01 | 43.07099 | -73.34976 | 37644 ft | 479 kts | 345° |
| 2026-05-07 13:01 | 43.10293 | -73.35272 | 37146 ft | 479 kts | 344° |
| 2026-05-07 13:01 | 43.13658 | -73.35594 | 36610 ft | 479 kts | 343° |
| 2026-05-07 13:02 | 43.16928 | -73.35902 | 36145 ft | 477 kts | 343° |
| 2026-05-07 13:02 | 43.20234 | -73.36210 | 35671 ft | 476 kts | 343° |
| 2026-05-07 13:02 | 43.22906 | -73.36455 | 35238 ft | 476 kts | 343° |
| 2026-05-07 13:02 | 43.26406 | -73.36771 | 34703 ft | 474 kts | 343° |
| 2026-05-07 13:03 | 43.29718 | -73.37075 | 34088 ft | 476 kts | 342° |
| 2026-05-07 13:03 | 43.33005 | -73.37376 | 33444 ft | 478 kts | 342° |
| 2026-05-07 13:03 | 43.36340 | -73.37684 | 32929 ft | 479 kts | 342° |
| 2026-05-07 13:03 | 43.39630 | -73.37981 | 32522 ft | 476 kts | 342° |
| 2026-05-07 13:04 | 43.42918 | -73.38272 | 32200 ft | 471 kts | 342° |
| 2026-05-07 13:04 | 43.46156 | -73.38560 | 31832 ft | 467 kts | 342° |
| 2026-05-07 13:04 | 43.49379 | -73.38851 | 31405 ft | 464 kts | 342° |
| 2026-05-07 13:04 | 43.52618 | -73.39147 | 30977 ft | 461 kts | 342° |
| 2026-05-07 13:05 | 43.55807 | -73.39436 | 30539 ft | 458 kts | 342° |
| 2026-05-07 13:05 | 43.58964 | -73.39726 | 30123 ft | 455 kts | 342° |
| 2026-05-07 13:05 | 43.62094 | -73.40012 | 29685 ft | 452 kts | 342° |
| 2026-05-07 13:05 | 43.65221 | -73.40301 | 29217 ft | 450 kts | 342° |
| 2026-05-07 13:06 | 43.68332 | -73.40588 | 28782 ft | 448 kts | 342° |
| 2026-05-07 13:06 | 43.71396 | -73.40874 | 28394 ft | 443 kts | 342° |
| 2026-05-07 13:06 | 43.74452 | -73.41207 | 27975 ft | 439 kts | 342° |
| 2026-05-07 13:06 | 43.77488 | -73.41554 | 27576 ft | 435 kts | 342° |
| 2026-05-07 13:07 | 43.80496 | -73.41902 | 27128 ft | 433 kts | 342° |
| 2026-05-07 13:07 | 43.83476 | -73.42248 | 26718 ft | 430 kts | 342° |
| 2026-05-07 13:07 | 43.86454 | -73.42593 | 26275 ft | 429 kts | 342° |
| 2026-05-07 13:07 | 43.89409 | -73.42928 | 25896 ft | 425 kts | 342° |
| 2026-05-07 13:08 | 43.92337 | -73.43260 | 25503 ft | 422 kts | 342° |
| 2026-05-07 13:08 | 43.95246 | -73.43592 | 25114 ft | 418 kts | 342° |
| 2026-05-07 13:08 | 43.98106 | -73.43917 | 24875 ft | 414 kts | 342° |
| 2026-05-07 13:08 | 44.01000 | -73.44254 | 24878 ft | 418 kts | 343° |
| 2026-05-07 13:09 | 44.03919 | -73.44592 | 24877 ft | 418 kts | 343° |
| 2026-05-07 13:09 | 44.06815 | -73.44924 | 24879 ft | 419 kts | 343° |
| 2026-05-07 13:09 | 44.09723 | -73.45256 | 24884 ft | 418 kts | 343° |
| 2026-05-07 13:09 | 44.12579 | -73.45586 | 24876 ft | 418 kts | 343° |
| 2026-05-07 13:10 | 44.15288 | -73.45898 | 24873 ft | 418 kts | 343° |
| 2026-05-07 13:10 | 44.18286 | -73.46241 | 24886 ft | 417 kts | 343° |
| 2026-05-07 13:10 | 44.21001 | -73.46554 | 24878 ft | 419 kts | 343° |
| 2026-05-07 13:10 | 44.23896 | -73.46888 | 24879 ft | 419 kts | 343° |
| 2026-05-07 13:11 | 44.26794 | -73.47219 | 24874 ft | 420 kts | 343° |
| 2026-05-07 13:11 | 44.29708 | -73.47556 | 24843 ft | 417 kts | 344° |
| 2026-05-07 13:11 | 44.32600 | -73.47887 | 24552 ft | 414 kts | 344° |
| 2026-05-07 13:11 | 44.35434 | -73.48215 | 24089 ft | 413 kts | 344° |
| 2026-05-07 13:12 | 44.38297 | -73.48547 | 23645 ft | 411 kts | 344° |
| 2026-05-07 13:12 | 44.41135 | -73.48875 | 23209 ft | 409 kts | 344° |
| 2026-05-07 13:12 | 44.43948 | -73.49200 | 22772 ft | 407 kts | 345° |
| 2026-05-07 13:12 | 44.46783 | -73.49532 | 22350 ft | 404 kts | 345° |
| 2026-05-07 13:13 | 44.49559 | -73.49854 | 21961 ft | 401 kts | 345° |
| 2026-05-07 13:13 | 44.52303 | -73.50172 | 21584 ft | 398 kts | 345° |
| 2026-05-07 13:13 | 44.55063 | -73.50494 | 21158 ft | 396 kts | 346° |
| 2026-05-07 13:13 | 44.57806 | -73.50815 | 20711 ft | 394 kts | 346° |
| 2026-05-07 13:14 | 44.60534 | -73.51133 | 20337 ft | 391 kts | 346° |
| 2026-05-07 13:14 | 44.63208 | -73.51444 | 19958 ft | 388 kts | 346° |
| 2026-05-07 13:14 | 44.65902 | -73.51759 | 19527 ft | 386 kts | 346° |
| 2026-05-07 13:14 | 44.68575 | -73.52071 | 19132 ft | 384 kts | 346° |
| 2026-05-07 13:15 | 44.71223 | -73.52268 | 18743 ft | 385 kts | 350° |
| 2026-05-07 13:15 | 44.73910 | -73.52306 | 18361 ft | 384 kts | 352° |
| 2026-05-07 13:15 | 44.76578 | -73.52307 | 17997 ft | 381 kts | 352° |
| 2026-05-07 13:15 | 44.79218 | -73.52305 | 17630 ft | 378 kts | 352° |
| 2026-05-07 13:16 | 44.81848 | -73.52302 | 17256 ft | 376 kts | 352° |
| 2026-05-07 13:16 | 44.84450 | -73.52303 | 16873 ft | 374 kts | 353° |
| 2026-05-07 13:16 | 44.87040 | -73.52303 | 16518 ft | 371 kts | 353° |
| 2026-05-07 13:16 | 44.89615 | -73.52308 | 16144 ft | 369 kts | 353° |
| 2026-05-07 13:17 | 44.92186 | -73.52313 | 15784 ft | 367 kts | 354° |
| 2026-05-07 13:17 | 44.94706 | -73.52317 | 15421 ft | 364 kts | 354° |
| 2026-05-07 13:17 | 44.97229 | -73.52320 | 15104 ft | 360 kts | 354° |
| 2026-05-07 13:17 | 44.99704 | -73.52319 | 15030 ft | 348 kts | 354° |
| 2026-05-07 13:18 | 45.02095 | -73.52313 | 15031 ft | 335 kts | 354° |
| 2026-05-07 13:18 | 45.04372 | -73.52312 | 14995 ft | 324 kts | 353° |
| 2026-05-07 13:18 | 45.06614 | -73.52316 | 14765 ft | 320 kts | 353° |
| 2026-05-07 13:18 | 45.08809 | -73.52325 | 14475 ft | 318 kts | 353° |
| 2026-05-07 13:19 | 45.11015 | -73.52334 | 14186 ft | 316 kts | 354° |
| 2026-05-07 13:19 | 45.13197 | -73.52341 | 13823 ft | 314 kts | 354° |
| 2026-05-07 13:19 | 45.15397 | -73.52347 | 13416 ft | 310 kts | 354° |
| 2026-05-07 13:19 | 45.17488 | -73.52351 | 13035 ft | 307 kts | 354° |
| 2026-05-07 13:20 | 45.19653 | -73.52357 | 12627 ft | 305 kts | 354° |
| 2026-05-07 13:20 | 45.21735 | -73.52361 | 12238 ft | 302 kts | 354° |
| 2026-05-07 13:20 | 45.23836 | -73.52365 | 11853 ft | 298 kts | 354° |
| 2026-05-07 13:20 | 45.25899 | -73.52370 | 11460 ft | 296 kts | 354° |
| 2026-05-07 13:21 | 45.27939 | -73.52374 | 11083 ft | 293 kts | 354° |
| 2026-05-07 13:21 | 45.29955 | -73.52378 | 10697 ft | 290 kts | 354° |
| 2026-05-07 13:21 | 45.31959 | -73.52380 | 10320 ft | 287 kts | 355° |
| 2026-05-07 13:21 | 45.33958 | -73.52386 | 9927 ft | 285 kts | 355° |
| 2026-05-07 13:22 | 45.35939 | -73.52391 | 9530 ft | 283 kts | 355° |
| 2026-05-07 13:22 | 45.37892 | -73.52394 | 9137 ft | 281 kts | 355° |
| 2026-05-07 13:22 | 45.39823 | -73.52396 | 8998 ft | 278 kts | 355° |
| 2026-05-07 13:22 | 45.41771 | -73.52402 | 8999 ft | 281 kts | 355° |
| 2026-05-07 13:23 | 45.43724 | -73.52407 | 9011 ft | 281 kts | 355° |
| 2026-05-07 13:23 | 45.45699 | -73.52413 | 9000 ft | 282 kts | 355° |
| 2026-05-07 13:23 | 45.47657 | -73.52416 | 8974 ft | 280 kts | 355° |
| 2026-05-07 13:23 | 45.49521 | -73.52418 | 8728 ft | 279 kts | 355° |
| 2026-05-07 13:24 | 45.51425 | -73.52422 | 8423 ft | 279 kts | 355° |
| 2026-05-07 13:24 | 45.53363 | -73.52427 | 8119 ft | 277 kts | 355° |
| 2026-05-07 13:24 | 45.55262 | -73.52430 | 7543 ft | 275 kts | 356° |
| 2026-05-07 13:24 | 45.57151 | -73.52433 | 6998 ft | 271 kts | 356° |
| 2026-05-07 13:25 | 45.59028 | -73.52436 | 6445 ft | 269 kts | 356° |
| 2026-05-07 13:25 | 45.60856 | -73.52631 | 6058 ft | 253 kts | 336° |
| 2026-05-07 13:25 | 45.62200 | -73.53992 | 5793 ft | 230 kts | 299° |
| 2026-05-07 13:25 | 45.62580 | -73.56068 | 5451 ft | 220 kts | 261° |
| 2026-05-07 13:26 | 45.61898 | -73.57963 | 4987 ft | 225 kts | 222° |
| 2026-05-07 13:26 | 45.60537 | -73.59100 | 4553 ft | 227 kts | 210° |
| 2026-05-07 13:26 | 45.59066 | -73.60027 | 3783 ft | 240 kts | 208° |
| 2026-05-07 13:26 | 45.58423 | -73.60416 | 3389 ft | 248 kts | 207° |
| 2026-05-07 13:27 | 45.57629 | -73.60893 | 2953 ft | 254 kts | 207° |
| 2026-05-07 13:27 | 45.55996 | -73.61867 | 2335 ft | 255 kts | 207° |
| 2026-05-07 13:27 | 45.54442 | -73.63003 | 1938 ft | 243 kts | 217° |
| 2026-05-07 13:27 | 45.53141 | -73.64418 | 1627 ft | 232 kts | 225° |
| 2026-05-07 13:28 | 45.51995 | -73.65945 | 1329 ft | 223 kts | 226° |
| 2026-05-07 13:28 | 45.50865 | -73.67455 | 1012 ft | 217 kts | 225° |
| 2026-05-07 13:28 | 45.49771 | -73.68828 | 737 ft | 208 kts | 223° |
| 2026-05-07 13:28 | 45.48713 | -73.70151 | 451 ft | 197 kts | 227° |
| 2026-05-07 13:29 | 45.47771 | -73.71510 | 181 ft | 188 kts | 224° |
| 2026-05-07 13:29 | 45.46822 | -73.72670 | 402 ft | 182 kts | 223° |
| 2026-05-07 13:29 | 45.45840 | -73.73887 | 1047 ft | 198 kts | 225° |
| 2026-05-07 13:29 | 45.44814 | -73.75244 | 1416 ft | 202 kts | 226° |
| 2026-05-07 13:30 | 45.43785 | -73.76603 | 1501 ft | 203 kts | 226° |
| 2026-05-07 13:30 | 45.42646 | -73.77775 | 1493 ft | 208 kts | 204° |
| 2026-05-07 13:30 | 45.41264 | -73.77961 | 1503 ft | 217 kts | 172° |
| 2026-05-07 13:30 | 45.40280 | -73.77387 | 1502 ft | 225 kts | 148° |
| 2026-05-07 13:31 | 45.39305 | -73.75633 | 1495 ft | 233 kts | 110° |
| 2026-05-07 13:31 | 45.39238 | -73.73337 | 1501 ft | 238 kts | 71° |
| 2026-05-07 13:31 | 45.40147 | -73.71422 | 1500 ft | 231 kts | 32° |
| 2026-05-07 13:31 | 45.41510 | -73.70234 | 1508 ft | 230 kts | 25° |
| 2026-05-07 13:32 | 45.42868 | -73.69084 | 1496 ft | 231 kts | 34° |
| 2026-05-07 13:32 | 45.44082 | -73.67529 | 1497 ft | 234 kts | 41° |
| 2026-05-07 13:32 | 45.45219 | -73.65884 | 1495 ft | 233 kts | 43° |
| 2026-05-07 13:32 | 45.46339 | -73.64214 | 1497 ft | 234 kts | 43° |
| 2026-05-07 13:33 | 45.47465 | -73.62521 | 1499 ft | 233 kts | 43° |
| 2026-05-07 13:33 | 45.48582 | -73.60838 | 1496 ft | 233 kts | 43° |
| 2026-05-07 13:33 | 45.49681 | -73.59173 | 1498 ft | 234 kts | 43° |
| 2026-05-07 13:33 | 45.50814 | -73.57512 | 1493 ft | 232 kts | 35° |
| 2026-05-07 13:34 | 45.52229 | -73.56551 | 1494 ft | 222 kts | 0° |
| 2026-05-07 13:34 | 45.54945 | -73.57858 | 1497 ft | 205 kts | 306° |
| 2026-05-07 13:34 | 45.55518 | -73.59637 | 1500 ft | 198 kts | 271° |
| 2026-05-07 13:35 | 45.55203 | -73.61505 | 1502 ft | 200 kts | 239° |
| 2026-05-07 13:35 | 45.54304 | -73.63014 | 1518 ft | 192 kts | 226° |
| 2026-05-07 13:35 | 45.53342 | -73.64245 | 1493 ft | 181 kts | 224° |
| 2026-05-07 13:35 | 45.52425 | -73.65395 | 1429 ft | 170 kts | 226° |
| 2026-05-07 13:36 | 45.51561 | -73.66524 | 1215 ft | 169 kts | 226° |
| 2026-05-07 13:36 | 45.50700 | -73.67661 | 980 ft | 169 kts | 226° |
| 2026-05-07 13:36 | 45.49844 | -73.68788 | 761 ft | 166 kts | 225° |
| 2026-05-07 13:36 | 45.49018 | -73.69868 | 525 ft | 158 kts | 226° |
| 2026-05-07 13:37 | 45.48233 | -73.70924 | 302 ft | 151 kts | 226° |
| 2026-05-07 13:37 | 45.47469 | -73.71898 | 142 ft | 143 kts | 225° |
| 2026-05-07 13:37 | 45.46793 | -73.72806 | 124 ft | 118 kts | 224° |
| 2026-05-07 13:37 | 45.46307 | -73.73442 | 119 ft | 71 kts | 223° |
| 2026-05-07 13:38 | 45.46137 | -73.73876 | 118 ft | 38 kts | 270° |
| 2026-05-07 13:38 | 45.46115 | -73.74209 | 118 ft | 23 kts | 257° |
| 2026-05-07 13:38 | 45.46021 | -73.74380 | 118 ft | 21 kts | 234° |
| 2026-05-07 13:38 | 45.45954 | -73.74474 | 118 ft | 6 kts | 186° |
| 2026-05-07 13:39 | 45.45906 | -73.74480 | 118 ft | 7 kts | 182° |
| 2026-05-07 13:39 | 45.45886 | -73.74481 | 118 ft | 0 kts | 182° |